sensor_id;sensor_type;location;lat;lon;timestamp;temperature;humidity
37310;DHT22;23195;47.744;7.358;2022-12-18T00:01:34;-5.50;99.90
37310;DHT22;23195;47.744;7.358;2022-12-18T00:04:01;-5.40;99.90
37310;DHT22;23195;47.744;7.358;2022-12-18T00:06:29;-5.30;99.90
37310;DHT22;23195;47.744;7.358;2022-12-18T00:08:58;-5.30;99.90
37310;DHT22;23195;47.744;7.358;2022-12-18T00:11:30;-5.30;99.90
37310;DHT22;23195;47.744;7.358;2022-12-18T00:14:02;-6.80;99.90
37310;DHT22;23195;47.744;7.358;2022-12-18T00:16:28;-5.50;99.90
37310;DHT22;23195;47.744;7.358;2022-12-18T00:18:56;-5.30;99.90
37310;DHT22;23195;47.744;7.358;2022-12-18T00:21:26;-5.40;99.90
37310;DHT22;23195;47.744;7.358;2022-12-18T00:23:52;-5.40;99.90
37310;DHT22;23195;47.744;7.358;2022-12-18T00:26:20;-5.40;99.90
37310;DHT22;23195;47.744;7.358;2022-12-18T00:28:48;-5.40;99.90
37310;DHT22;23195;47.744;7.358;2022-12-18T00:31:17;-5.50;99.90
37310;DHT22;23195;47.744;7.358;2022-12-18T00:33:43;-5.40;99.90
37310;DHT22;23195;47.744;7.358;2022-12-18T00:36:14;-5.40;99.90
37310;DHT22;23195;47.744;7.358;2022-12-18T00:38:40;-5.30;99.90
37310;DHT22;23195;47.744;7.358;2022-12-18T00:41:07;-5.40;99.90
37310;DHT22;23195;47.744;7.358;2022-12-18T00:43:36;-5.30;99.90
37310;DHT22;23195;47.744;7.358;2022-12-18T00:46:05;-5.30;99.90
37310;DHT22;23195;47.744;7.358;2022-12-18T00:48:31;-5.30;99.90
37310;DHT22;23195;47.744;7.358;2022-12-18T00:50:57;-6.10;99.90
37310;DHT22;23195;47.744;7.358;2022-12-18T00:53:23;-5.30;99.90
37310;DHT22;23195;47.744;7.358;2022-12-18T00:55:49;-5.40;99.90
37310;DHT22;23195;47.744;7.358;2022-12-18T00:58:23;-5.50;99.90
37310;DHT22;23195;47.744;7.358;2022-12-18T01:00:49;-5.40;99.90
37310;DHT22;23195;47.744;7.358;2022-12-18T01:03:14;-5.40;99.90
37310;DHT22;23195;47.744;7.358;2022-12-18T01:05:41;-5.50;99.90
37310;DHT22;23195;47.744;7.358;2022-12-18T01:08:06;-5.60;99.90
37310;DHT22;23195;47.744;7.358;2022-12-18T01:10:32;-5.60;99.90
37310;DHT22;23195;47.744;7.358;2022-12-18T01:12:58;-5.60;99.90
37310;DHT22;23195;47.744;7.358;2022-12-18T01:15:24;-5.50;99.90
37310;DHT22;23195;47.744;7.358;2022-12-18T01:17:52;-5.50;99.90
37310;DHT22;23195;47.744;7.358;2022-12-18T01:20:18;-5.10;99.90
37310;DHT22;23195;47.744;7.358;2022-12-18T01:22:44;-5.70;99.90
37310;DHT22;23195;47.744;7.358;2022-12-18T01:25:15;-5.60;99.90
37310;DHT22;23195;47.744;7.358;2022-12-18T01:27:40;-5.60;99.90
37310;DHT22;23195;47.744;7.358;2022-12-18T01:30:10;-5.70;99.90
37310;DHT22;23195;47.744;7.358;2022-12-18T01:32:41;-5.70;99.90
37310;DHT22;23195;47.744;7.358;2022-12-18T01:35:08;-7.00;99.90
37310;DHT22;23195;47.744;7.358;2022-12-18T01:37:34;-5.50;99.90
37310;DHT22;23195;47.744;7.358;2022-12-18T01:39:59;-5.60;99.90
37310;DHT22;23195;47.744;7.358;2022-12-18T01:42:28;-5.50;99.90
37310;DHT22;23195;47.744;7.358;2022-12-18T01:48:00;-5.50;99.90
37310;DHT22;23195;47.744;7.358;2022-12-18T01:50:41;-5.50;99.90
37310;DHT22;23195;47.744;7.358;2022-12-18T01:53:11;-5.50;99.90
37310;DHT22;23195;47.744;7.358;2022-12-18T01:55:42;-5.60;99.90
37310;DHT22;23195;47.744;7.358;2022-12-18T01:58:08;-5.60;99.90
37310;DHT22;23195;47.744;7.358;2022-12-18T02:00:34;-5.50;99.90
37310;DHT22;23195;47.744;7.358;2022-12-18T02:03:00;-5.10;99.90
37310;DHT22;23195;47.744;7.358;2022-12-18T02:08:30;-5.40;99.90
37310;DHT22;23195;47.744;7.358;2022-12-18T02:11:12;-5.40;99.90
37310;DHT22;23195;47.744;7.358;2022-12-18T02:14:03;-5.30;99.90
37310;DHT22;23195;47.744;7.358;2022-12-18T02:25:38;-5.10;99.90
37310;DHT22;23195;47.744;7.358;2022-12-18T02:28:11;-5.20;99.90
37310;DHT22;23195;47.744;7.358;2022-12-18T02:30:39;-5.20;99.90
37310;DHT22;23195;47.744;7.358;2022-12-18T02:33:08;-5.20;99.90
37310;DHT22;23195;47.744;7.358;2022-12-18T02:35:36;-5.20;99.90
37310;DHT22;23195;47.744;7.358;2022-12-18T02:38:03;-5.20;99.90
37310;DHT22;23195;47.744;7.358;2022-12-18T02:40:30;-5.10;99.90
37310;DHT22;23195;47.744;7.358;2022-12-18T02:43:06;-5.30;99.90
37310;DHT22;23195;47.744;7.358;2022-12-18T02:45:32;-5.30;99.90
37310;DHT22;23195;47.744;7.358;2022-12-18T02:47:58;-5.30;99.90
37310;DHT22;23195;47.744;7.358;2022-12-18T02:50:44;-5.40;99.90
37310;DHT22;23195;47.744;7.358;2022-12-18T02:53:18;-5.30;99.90
37310;DHT22;23195;47.744;7.358;2022-12-18T02:56:10;-5.40;99.90
37310;DHT22;23195;47.744;7.358;2022-12-18T02:59:00;-5.30;99.90
37310;DHT22;23195;47.744;7.358;2022-12-18T03:04:31;-5.30;99.90
37310;DHT22;23195;47.744;7.358;2022-12-18T03:07:03;-5.40;99.90
37310;DHT22;23195;47.744;7.358;2022-12-18T03:09:37;-5.30;99.90
37310;DHT22;23195;47.744;7.358;2022-12-18T03:18:08;-5.30;99.90
37310;DHT22;23195;47.744;7.358;2022-12-18T03:20:37;-5.30;99.90
37310;DHT22;23195;47.744;7.358;2022-12-18T03:23:15;-5.20;99.90
37310;DHT22;23195;47.744;7.358;2022-12-18T03:25:44;-5.30;99.90
37310;DHT22;23195;47.744;7.358;2022-12-18T03:28:16;-5.30;99.90
37310;DHT22;23195;47.744;7.358;2022-12-18T03:30:55;-5.20;99.90
37310;DHT22;23195;47.744;7.358;2022-12-18T03:33:26;-5.20;99.90
37310;DHT22;23195;47.744;7.358;2022-12-18T03:36:02;-5.20;99.90
37310;DHT22;23195;47.744;7.358;2022-12-18T03:38:28;-5.20;99.90
37310;DHT22;23195;47.744;7.358;2022-12-18T03:44:12;-5.10;99.90
37310;DHT22;23195;47.744;7.358;2022-12-18T03:46:49;-5.00;99.90
37310;DHT22;23195;47.744;7.358;2022-12-18T03:49:36;-4.90;99.90
37310;DHT22;23195;47.744;7.358;2022-12-18T03:52:13;-5.00;99.90
37310;DHT22;23195;47.744;7.358;2022-12-18T03:54:41;-5.00;99.90
37310;DHT22;23195;47.744;7.358;2022-12-18T03:57:20;-5.00;99.90
37310;DHT22;23195;47.744;7.358;2022-12-18T03:59:50;-5.40;99.90
37310;DHT22;23195;47.744;7.358;2022-12-18T04:02:18;-4.90;99.90
37310;DHT22;23195;47.744;7.358;2022-12-18T04:04:53;-5.00;99.90
37310;DHT22;23195;47.744;7.358;2022-12-18T04:07:21;-5.00;99.90
37310;DHT22;23195;47.744;7.358;2022-12-18T04:09:48;-5.00;99.90
37310;DHT22;23195;47.744;7.358;2022-12-18T04:12:17;-4.90;99.90
37310;DHT22;23195;47.744;7.358;2022-12-18T04:14:43;-4.80;99.90
37310;DHT22;23195;47.744;7.358;2022-12-18T04:17:08;-4.90;99.90
37310;DHT22;23195;47.744;7.358;2022-12-18T04:19:34;-5.20;99.90
37310;DHT22;23195;47.744;7.358;2022-12-18T04:22:00;-4.90;99.90
37310;DHT22;23195;47.744;7.358;2022-12-18T04:24:26;-4.80;99.90
37310;DHT22;23195;47.744;7.358;2022-12-18T04:26:54;-4.80;99.90
37310;DHT22;23195;47.744;7.358;2022-12-18T04:29:20;-4.70;99.90
37310;DHT22;23195;47.744;7.358;2022-12-18T04:31:46;-4.70;99.90
37310;DHT22;23195;47.744;7.358;2022-12-18T04:34:11;-4.80;99.90
37310;DHT22;23195;47.744;7.358;2022-12-18T04:36:37;-4.90;99.90
37310;DHT22;23195;47.744;7.358;2022-12-18T04:39:03;-4.90;99.90
37310;DHT22;23195;47.744;7.358;2022-12-18T04:41:29;-4.70;99.90
37310;DHT22;23195;47.744;7.358;2022-12-18T04:43:54;-4.70;99.90
37310;DHT22;23195;47.744;7.358;2022-12-18T04:46:23;-4.70;99.90
37310;DHT22;23195;47.744;7.358;2022-12-18T04:48:49;-4.70;99.90
37310;DHT22;23195;47.744;7.358;2022-12-18T04:51:15;-4.80;99.90
37310;DHT22;23195;47.744;7.358;2022-12-18T04:53:44;-4.70;99.90
37310;DHT22;23195;47.744;7.358;2022-12-18T04:56:11;-4.80;99.90
37310;DHT22;23195;47.744;7.358;2022-12-18T04:58:43;-4.70;99.90
37310;DHT22;23195;47.744;7.358;2022-12-18T05:01:11;-4.60;99.90
37310;DHT22;23195;47.744;7.358;2022-12-18T05:03:38;-4.70;99.90
37310;DHT22;23195;47.744;7.358;2022-12-18T05:06:05;-4.60;99.90
37310;DHT22;23195;47.744;7.358;2022-12-18T05:08:34;-5.60;99.90
37310;DHT22;23195;47.744;7.358;2022-12-18T05:11:07;-4.60;99.90
37310;DHT22;23195;47.744;7.358;2022-12-18T05:13:35;-4.60;99.90
37310;DHT22;23195;47.744;7.358;2022-12-18T05:16:06;-4.70;99.90
37310;DHT22;23195;47.744;7.358;2022-12-18T05:18:33;-4.60;99.90
37310;DHT22;23195;47.744;7.358;2022-12-18T05:21:02;-4.50;99.90
37310;DHT22;23195;47.744;7.358;2022-12-18T05:23:31;-4.60;99.90
37310;DHT22;23195;47.744;7.358;2022-12-18T05:26:05;-4.70;99.90
37310;DHT22;23195;47.744;7.358;2022-12-18T05:28:33;-4.80;99.90
37310;DHT22;23195;47.744;7.358;2022-12-18T05:31:01;-4.70;99.90
37310;DHT22;23195;47.744;7.358;2022-12-18T05:33:32;-4.80;99.90
37310;DHT22;23195;47.744;7.358;2022-12-18T05:36:00;-4.70;99.90
37310;DHT22;23195;47.744;7.358;2022-12-18T05:38:30;-4.70;99.90
37310;DHT22;23195;47.744;7.358;2022-12-18T05:40:59;-4.60;99.90
37310;DHT22;23195;47.744;7.358;2022-12-18T05:43:26;-4.60;99.90
37310;DHT22;23195;47.744;7.358;2022-12-18T05:45:53;-4.70;99.90
37310;DHT22;23195;47.744;7.358;2022-12-18T05:48:19;-4.70;99.90
37310;DHT22;23195;47.744;7.358;2022-12-18T05:50:46;-4.60;99.90
37310;DHT22;23195;47.744;7.358;2022-12-18T05:53:14;-4.60;99.90
37310;DHT22;23195;47.744;7.358;2022-12-18T05:55:43;-4.60;99.90
37310;DHT22;23195;47.744;7.358;2022-12-18T05:58:17;-4.60;99.90
37310;DHT22;23195;47.744;7.358;2022-12-18T06:00:53;-4.60;99.90
37310;DHT22;23195;47.744;7.358;2022-12-18T06:03:19;-4.50;99.90
37310;DHT22;23195;47.744;7.358;2022-12-18T06:05:45;-4.60;99.90
37310;DHT22;23195;47.744;7.358;2022-12-18T06:08:12;-4.60;99.90
37310;DHT22;23195;47.744;7.358;2022-12-18T06:10:39;-4.60;99.90
37310;DHT22;23195;47.744;7.358;2022-12-18T06:13:07;-4.50;99.90
37310;DHT22;23195;47.744;7.358;2022-12-18T06:15:35;-4.40;99.90
37310;DHT22;23195;47.744;7.358;2022-12-18T06:18:01;-4.30;99.90
37310;DHT22;23195;47.744;7.358;2022-12-18T06:20:31;-4.40;99.90
37310;DHT22;23195;47.744;7.358;2022-12-18T06:23:36;-4.40;99.90
37310;DHT22;23195;47.744;7.358;2022-12-18T06:26:49;-4.50;99.90
37310;DHT22;23195;47.744;7.358;2022-12-18T06:29:35;-4.50;99.90
37310;DHT22;23195;47.744;7.358;2022-12-18T06:38:55;-4.40;99.90
37310;DHT22;23195;47.744;7.358;2022-12-18T06:41:37;-4.40;99.90
37310;DHT22;23195;47.744;7.358;2022-12-18T06:44:40;-4.40;99.90
37310;DHT22;23195;47.744;7.358;2022-12-18T06:47:13;-4.40;99.90
37310;DHT22;23195;47.744;7.358;2022-12-18T06:49:55;-4.50;99.90
37310;DHT22;23195;47.744;7.358;2022-12-18T06:55:49;-4.20;99.90
37310;DHT22;23195;47.744;7.358;2022-12-18T06:58:28;-4.10;99.90
37310;DHT22;23195;47.744;7.358;2022-12-18T07:01:24;-4.10;99.90
37310;DHT22;23195;47.744;7.358;2022-12-18T07:04:10;-4.10;99.90
37310;DHT22;23195;47.744;7.358;2022-12-18T07:06:36;-4.10;99.90
37310;DHT22;23195;47.744;7.358;2022-12-18T07:09:01;-4.00;99.90
37310;DHT22;23195;47.744;7.358;2022-12-18T07:11:27;-4.00;99.90
37310;DHT22;23195;47.744;7.358;2022-12-18T07:13:53;-3.90;99.90
37310;DHT22;23195;47.744;7.358;2022-12-18T07:16:21;-3.80;99.90
37310;DHT22;23195;47.744;7.358;2022-12-18T07:18:47;-3.80;99.90
37310;DHT22;23195;47.744;7.358;2022-12-18T07:21:16;-3.80;99.90
37310;DHT22;23195;47.744;7.358;2022-12-18T07:23:43;-3.70;99.90
37310;DHT22;23195;47.744;7.358;2022-12-18T07:26:13;-4.30;99.90
37310;DHT22;23195;47.744;7.358;2022-12-18T07:28:41;-3.70;99.90
37310;DHT22;23195;47.744;7.358;2022-12-18T07:31:13;-3.70;99.90
37310;DHT22;23195;47.744;7.358;2022-12-18T07:33:41;-3.70;99.90
37310;DHT22;23195;47.744;7.358;2022-12-18T07:36:10;-3.70;99.90
37310;DHT22;23195;47.744;7.358;2022-12-18T07:38:37;-3.70;99.90
37310;DHT22;23195;47.744;7.358;2022-12-18T07:41:09;-3.70;99.90
37310;DHT22;23195;47.744;7.358;2022-12-18T07:43:35;-3.60;99.90
37310;DHT22;23195;47.744;7.358;2022-12-18T07:46:02;-3.60;99.90
37310;DHT22;23195;47.744;7.358;2022-12-18T07:48:28;-3.50;99.90
37310;DHT22;23195;47.744;7.358;2022-12-18T07:50:58;-3.40;99.90
37310;DHT22;23195;47.744;7.358;2022-12-18T07:53:24;-3.30;99.90
37310;DHT22;23195;47.744;7.358;2022-12-18T07:55:58;-3.30;99.90
37310;DHT22;23195;47.744;7.358;2022-12-18T07:58:25;-3.20;99.90
37310;DHT22;23195;47.744;7.358;2022-12-18T08:00:51;-3.40;99.90
37310;DHT22;23195;47.744;7.358;2022-12-18T08:03:21;-3.20;99.90
37310;DHT22;23195;47.744;7.358;2022-12-18T08:05:49;-3.20;99.90
37310;DHT22;23195;47.744;7.358;2022-12-18T08:08:18;-3.20;99.90
37310;DHT22;23195;47.744;7.358;2022-12-18T08:10:44;-3.10;99.90
37310;DHT22;23195;47.744;7.358;2022-12-18T08:13:10;-3.00;99.90
37310;DHT22;23195;47.744;7.358;2022-12-18T08:15:35;-3.10;99.90
37310;DHT22;23195;47.744;7.358;2022-12-18T08:18:01;-3.00;99.90
37310;DHT22;23195;47.744;7.358;2022-12-18T08:20:27;-2.90;99.90
37310;DHT22;23195;47.744;7.358;2022-12-18T08:22:53;-3.00;99.90
37310;DHT22;23195;47.744;7.358;2022-12-18T08:25:19;-3.00;99.90
37310;DHT22;23195;47.744;7.358;2022-12-18T08:27:45;-3.00;99.90
37310;DHT22;23195;47.744;7.358;2022-12-18T08:30:11;-2.90;99.90
37310;DHT22;23195;47.744;7.358;2022-12-18T08:32:37;-2.80;99.90
37310;DHT22;23195;47.744;7.358;2022-12-18T08:35:06;-2.90;99.90
37310;DHT22;23195;47.744;7.358;2022-12-18T08:37:32;-2.90;99.90
37310;DHT22;23195;47.744;7.358;2022-12-18T08:39:57;-2.60;99.90
37310;DHT22;23195;47.744;7.358;2022-12-18T08:42:23;-2.60;99.90
37310;DHT22;23195;47.744;7.358;2022-12-18T08:45:08;-2.60;99.90
37310;DHT22;23195;47.744;7.358;2022-12-18T08:47:37;-2.60;99.90
37310;DHT22;23195;47.744;7.358;2022-12-18T08:50:03;-2.70;99.90
37310;DHT22;23195;47.744;7.358;2022-12-18T08:52:30;-2.60;99.90
37310;DHT22;23195;47.744;7.358;2022-12-18T08:54:56;-2.60;99.90
37310;DHT22;23195;47.744;7.358;2022-12-18T08:57:24;-2.50;99.90
37310;DHT22;23195;47.744;7.358;2022-12-18T08:59:50;-2.40;99.90
37310;DHT22;23195;47.744;7.358;2022-12-18T09:02:19;-2.40;99.90
37310;DHT22;23195;47.744;7.358;2022-12-18T09:04:47;-2.40;99.90
37310;DHT22;23195;47.744;7.358;2022-12-18T09:07:21;-2.20;99.90
37310;DHT22;23195;47.744;7.358;2022-12-18T09:09:47;-2.10;99.90
37310;DHT22;23195;47.744;7.358;2022-12-18T09:12:16;-1.70;99.90
37310;DHT22;23195;47.744;7.358;2022-12-18T09:14:41;-2.20;99.90
37310;DHT22;23195;47.744;7.358;2022-12-18T09:17:08;-2.10;99.90
37310;DHT22;23195;47.744;7.358;2022-12-18T09:19:40;-2.00;99.90
37310;DHT22;23195;47.744;7.358;2022-12-18T09:22:08;-2.10;99.90
37310;DHT22;23195;47.744;7.358;2022-12-18T09:24:35;-2.20;99.90
37310;DHT22;23195;47.744;7.358;2022-12-18T09:27:04;-2.80;99.90
37310;DHT22;23195;47.744;7.358;2022-12-18T09:29:30;-2.60;99.90
37310;DHT22;23195;47.744;7.358;2022-12-18T09:31:58;-1.90;99.90
37310;DHT22;23195;47.744;7.358;2022-12-18T09:34:27;-1.90;99.90
37310;DHT22;23195;47.744;7.358;2022-12-18T09:36:53;-1.90;99.90
37310;DHT22;23195;47.744;7.358;2022-12-18T09:39:19;-1.90;99.90
37310;DHT22;23195;47.744;7.358;2022-12-18T09:41:50;-1.80;99.90
37310;DHT22;23195;47.744;7.358;2022-12-18T09:44:30;-1.70;99.90
37310;DHT22;23195;47.744;7.358;2022-12-18T09:50:14;-2.70;99.90
37310;DHT22;23195;47.744;7.358;2022-12-18T09:52:48;-1.40;99.90
37310;DHT22;23195;47.744;7.358;2022-12-18T09:55:40;-1.40;99.90
37310;DHT22;23195;47.744;7.358;2022-12-18T09:58:16;-1.30;99.90
37310;DHT22;23195;47.744;7.358;2022-12-18T10:00:55;-1.30;99.90
37310;DHT22;23195;47.744;7.358;2022-12-18T10:03:28;-1.30;99.90
37310;DHT22;23195;47.744;7.358;2022-12-18T10:05:58;-1.20;99.90
37310;DHT22;23195;47.744;7.358;2022-12-18T10:08:59;-1.20;99.90
37310;DHT22;23195;47.744;7.358;2022-12-18T10:18:16;-1.10;99.90
37310;DHT22;23195;47.744;7.358;2022-12-18T10:20:42;-1.10;99.90
37310;DHT22;23195;47.744;7.358;2022-12-18T10:26:09;-1.00;99.90
37310;DHT22;23195;47.744;7.358;2022-12-18T10:28:44;-1.00;99.90
37310;DHT22;23195;47.744;7.358;2022-12-18T10:31:22;-1.00;99.90
37310;DHT22;23195;47.744;7.358;2022-12-18T10:33:48;-1.00;99.90
37310;DHT22;23195;47.744;7.358;2022-12-18T10:36:17;-1.20;99.90
37310;DHT22;23195;47.744;7.358;2022-12-18T10:38:43;-0.90;99.90
37310;DHT22;23195;47.744;7.358;2022-12-18T10:43:48;-2.00;99.90
37310;DHT22;23195;47.744;7.358;2022-12-18T10:46:20;-0.30;99.90
37310;DHT22;23195;47.744;7.358;2022-12-18T10:51:33;-0.30;99.90
37310;DHT22;23195;47.744;7.358;2022-12-18T10:54:13;-0.30;99.90
37310;DHT22;23195;47.744;7.358;2022-12-18T10:56:44;-0.30;99.90
37310;DHT22;23195;47.744;7.358;2022-12-18T10:59:19;-0.20;99.90
37310;DHT22;23195;47.744;7.358;2022-12-18T11:02:00;-0.10;99.90
37310;DHT22;23195;47.744;7.358;2022-12-18T11:04:50;-0.40;99.90
37310;DHT22;23195;47.744;7.358;2022-12-18T11:07:51;0.10;99.90
37310;DHT22;23195;47.744;7.358;2022-12-18T11:10:37;0.30;99.90
37310;DHT22;23195;47.744;7.358;2022-12-18T11:13:21;0.30;99.90
37310;DHT22;23195;47.744;7.358;2022-12-18T11:15:58;0.40;99.90
37310;DHT22;23195;47.744;7.358;2022-12-18T11:21:06;0.30;99.90
37310;DHT22;23195;47.744;7.358;2022-12-18T11:23:36;0.20;99.90
37310;DHT22;23195;47.744;7.358;2022-12-18T11:26:04;0.20;99.90
37310;DHT22;23195;47.744;7.358;2022-12-18T11:28:51;0.10;99.90
37310;DHT22;23195;47.744;7.358;2022-12-18T11:34:00;0.10;99.90
37310;DHT22;23195;47.744;7.358;2022-12-18T11:36:31;0.10;99.90
37310;DHT22;23195;47.744;7.358;2022-12-18T11:39:01;-0.40;99.90
37310;DHT22;23195;47.744;7.358;2022-12-18T11:41:41;-0.10;99.90
37310;DHT22;23195;47.744;7.358;2022-12-18T11:44:55;0.10;99.90
37310;DHT22;23195;47.744;7.358;2022-12-18T11:47:40;0.10;99.90
37310;DHT22;23195;47.744;7.358;2022-12-18T11:50:41;0.20;99.90
37310;DHT22;23195;47.744;7.358;2022-12-18T11:53:12;0.30;99.90
37310;DHT22;23195;47.744;7.358;2022-12-18T11:58:20;0.40;99.90
37310;DHT22;23195;47.744;7.358;2022-12-18T12:06:57;0.20;99.90
37310;DHT22;23195;47.744;7.358;2022-12-18T12:09:35;0.20;99.90
37310;DHT22;23195;47.744;7.358;2022-12-18T12:15:06;0.50;99.90
37310;DHT22;23195;47.744;7.358;2022-12-18T12:18:20;0.60;99.90
37310;DHT22;23195;47.744;7.358;2022-12-18T12:26:57;0.70;99.90
37310;DHT22;23195;47.744;7.358;2022-12-18T12:32:17;0.70;99.90
37310;DHT22;23195;47.744;7.358;2022-12-18T12:38:01;0.80;99.90
37310;DHT22;23195;47.744;7.358;2022-12-18T12:40:54;1.00;99.90
37310;DHT22;23195;47.744;7.358;2022-12-18T12:43:24;1.00;99.90
37310;DHT22;23195;47.744;7.358;2022-12-18T12:45:55;1.00;99.90
37310;DHT22;23195;47.744;7.358;2022-12-18T12:48:29;1.00;99.90
37310;DHT22;23195;47.744;7.358;2022-12-18T12:51:03;1.00;99.90
37310;DHT22;23195;47.744;7.358;2022-12-18T12:53:37;-0.40;99.90
37310;DHT22;23195;47.744;7.358;2022-12-18T12:56:05;0.80;99.90
37310;DHT22;23195;47.744;7.358;2022-12-18T13:13:10;0.80;99.90
37310;DHT22;23195;47.744;7.358;2022-12-18T13:18:25;0.40;99.90
37310;DHT22;23195;47.744;7.358;2022-12-18T13:25:53;1.10;99.90
37310;DHT22;23195;47.744;7.358;2022-12-18T13:31:14;1.10;99.90
37310;DHT22;23195;47.744;7.358;2022-12-18T13:33:43;0.90;99.90
37310;DHT22;23195;47.744;7.358;2022-12-18T13:36:26;0.80;99.90
37310;DHT22;23195;47.744;7.358;2022-12-18T13:39:20;0.80;99.90
37310;DHT22;23195;47.744;7.358;2022-12-18T13:41:49;0.80;99.90
37310;DHT22;23195;47.744;7.358;2022-12-18T13:44:37;0.70;99.90
37310;DHT22;23195;47.744;7.358;2022-12-18T13:47:32;0.70;99.90
37310;DHT22;23195;47.744;7.358;2022-12-18T13:50:09;0.50;99.90
37310;DHT22;23195;47.744;7.358;2022-12-18T13:52:39;0.40;99.90
37310;DHT22;23195;47.744;7.358;2022-12-18T13:55:14;0.30;99.90
37310;DHT22;23195;47.744;7.358;2022-12-18T13:57:44;0.20;99.90
37310;DHT22;23195;47.744;7.358;2022-12-18T14:02:50;-0.10;99.90
37310;DHT22;23195;47.744;7.358;2022-12-18T14:05:24;-0.20;99.90
37310;DHT22;23195;47.744;7.358;2022-12-18T14:07:53;-0.20;99.90
37310;DHT22;23195;47.744;7.358;2022-12-18T14:10:31;-0.20;99.90
37310;DHT22;23195;47.744;7.358;2022-12-18T14:13:08;-0.90;99.90
37310;DHT22;23195;47.744;7.358;2022-12-18T14:15:40;-0.50;99.90
37310;DHT22;23195;47.744;7.358;2022-12-18T14:18:38;-0.20;99.90
37310;DHT22;23195;47.744;7.358;2022-12-18T14:21:20;-0.20;99.90
37310;DHT22;23195;47.744;7.358;2022-12-18T14:24:04;-0.10;99.90
37310;DHT22;23195;47.744;7.358;2022-12-18T14:26:31;0.00;99.90
37310;DHT22;23195;47.744;7.358;2022-12-18T14:29:01;0.00;99.90
37310;DHT22;23195;47.744;7.358;2022-12-18T14:31:37;-0.10;99.90
37310;DHT22;23195;47.744;7.358;2022-12-18T14:34:16;-0.10;99.90
37310;DHT22;23195;47.744;7.358;2022-12-18T14:36:53;-0.10;99.90
37310;DHT22;23195;47.744;7.358;2022-12-18T14:39:29;-0.10;99.90
37310;DHT22;23195;47.744;7.358;2022-12-18T14:41:55;-0.10;99.90
37310;DHT22;23195;47.744;7.358;2022-12-18T14:44:24;-0.10;99.90
37310;DHT22;23195;47.744;7.358;2022-12-18T14:46:56;0.00;99.90
37310;DHT22;23195;47.744;7.358;2022-12-18T14:49:31;-0.30;99.90
37310;DHT22;23195;47.744;7.358;2022-12-18T14:52:02;-0.20;99.90
37310;DHT22;23195;47.744;7.358;2022-12-18T14:54:34;-0.30;99.90
37310;DHT22;23195;47.744;7.358;2022-12-18T14:57:32;-0.30;99.90
37310;DHT22;23195;47.744;7.358;2022-12-18T15:00:16;-0.40;99.90
37310;DHT22;23195;47.744;7.358;2022-12-18T15:02:48;-0.40;99.90
37310;DHT22;23195;47.744;7.358;2022-12-18T15:05:30;-0.40;99.90
37310;DHT22;23195;47.744;7.358;2022-12-18T15:08:02;-0.40;99.90
37310;DHT22;23195;47.744;7.358;2022-12-18T15:10:32;-0.50;99.90
37310;DHT22;23195;47.744;7.358;2022-12-18T15:13:16;-0.50;99.90
37310;DHT22;23195;47.744;7.358;2022-12-18T15:16:01;-0.50;99.90
37310;DHT22;23195;47.744;7.358;2022-12-18T15:18:44;-0.50;99.90
37310;DHT22;23195;47.744;7.358;2022-12-18T15:21:20;-0.40;99.90
37310;DHT22;23195;47.744;7.358;2022-12-18T15:23:53;-0.30;99.90
37310;DHT22;23195;47.744;7.358;2022-12-18T15:26:36;-1.00;99.90
37310;DHT22;23195;47.744;7.358;2022-12-18T15:29:22;-0.40;99.90
37310;DHT22;23195;47.744;7.358;2022-12-18T15:32:10;-0.50;99.90
37310;DHT22;23195;47.744;7.358;2022-12-18T15:34:41;-0.60;99.90
37310;DHT22;23195;47.744;7.358;2022-12-18T15:37:10;-0.60;99.90
37310;DHT22;23195;47.744;7.358;2022-12-18T15:39:44;-0.60;99.90
37310;DHT22;23195;47.744;7.358;2022-12-18T15:42:10;-0.60;99.90
37310;DHT22;23195;47.744;7.358;2022-12-18T15:44:54;-0.70;99.90
37310;DHT22;23195;47.744;7.358;2022-12-18T15:47:23;-0.70;99.90
37310;DHT22;23195;47.744;7.358;2022-12-18T15:49:49;-0.80;99.90
37310;DHT22;23195;47.744;7.358;2022-12-18T15:52:17;-0.80;99.90
37310;DHT22;23195;47.744;7.358;2022-12-18T15:54:51;-0.90;99.90
37310;DHT22;23195;47.744;7.358;2022-12-18T15:57:38;-0.80;99.90
37310;DHT22;23195;47.744;7.358;2022-12-18T16:00:11;-1.00;99.90
37310;DHT22;23195;47.744;7.358;2022-12-18T16:02:40;-1.00;99.90
37310;DHT22;23195;47.744;7.358;2022-12-18T16:05:14;-1.10;99.90
37310;DHT22;23195;47.744;7.358;2022-12-18T16:07:40;-1.20;99.90
37310;DHT22;23195;47.744;7.358;2022-12-18T16:10:06;-1.20;99.90
37310;DHT22;23195;47.744;7.358;2022-12-18T16:12:35;-1.20;99.90
37310;DHT22;23195;47.744;7.358;2022-12-18T16:15:13;-1.10;99.90
37310;DHT22;23195;47.744;7.358;2022-12-18T16:17:46;-1.80;99.90
37310;DHT22;23195;47.744;7.358;2022-12-18T16:20:30;-1.30;99.90
37310;DHT22;23195;47.744;7.358;2022-12-18T16:22:56;-1.40;99.90
37310;DHT22;23195;47.744;7.358;2022-12-18T16:25:29;-1.60;99.90
37310;DHT22;23195;47.744;7.358;2022-12-18T16:27:55;-1.50;99.90
37310;DHT22;23195;47.744;7.358;2022-12-18T16:30:27;-1.60;99.90
37310;DHT22;23195;47.744;7.358;2022-12-18T16:33:07;-1.50;99.90
37310;DHT22;23195;47.744;7.358;2022-12-18T16:35:53;-1.40;99.90
37310;DHT22;23195;47.744;7.358;2022-12-18T16:38:21;-1.40;99.90
37310;DHT22;23195;47.744;7.358;2022-12-18T16:40:57;-1.40;99.90
37310;DHT22;23195;47.744;7.358;2022-12-18T16:43:41;-1.40;99.90
37310;DHT22;23195;47.744;7.358;2022-12-18T16:46:23;-1.40;99.90
37310;DHT22;23195;47.744;7.358;2022-12-18T16:48:59;-1.40;99.90
37310;DHT22;23195;47.744;7.358;2022-12-18T16:51:35;-1.40;99.90
37310;DHT22;23195;47.744;7.358;2022-12-18T16:54:12;-1.50;99.90
37310;DHT22;23195;47.744;7.358;2022-12-18T16:56:44;-1.50;99.90
37310;DHT22;23195;47.744;7.358;2022-12-18T16:59:29;-1.40;99.90
37310;DHT22;23195;47.744;7.358;2022-12-18T17:02:11;-1.30;99.90
37310;DHT22;23195;47.744;7.358;2022-12-18T17:04:46;-2.10;99.90
37310;DHT22;23195;47.744;7.358;2022-12-18T17:07:22;-1.40;99.90
37310;DHT22;23195;47.744;7.358;2022-12-18T17:10:04;-1.40;99.90
37310;DHT22;23195;47.744;7.358;2022-12-18T17:12:32;-1.40;99.90
37310;DHT22;23195;47.744;7.358;2022-12-18T17:15:09;-1.40;99.90
37310;DHT22;23195;47.744;7.358;2022-12-18T17:21:01;-1.20;99.90
37310;DHT22;23195;47.744;7.358;2022-12-18T17:23:39;-1.50;99.90
37310;DHT22;23195;47.744;7.358;2022-12-18T17:26:15;-1.40;99.90
37310;DHT22;23195;47.744;7.358;2022-12-18T17:29:00;-1.40;99.90
37310;DHT22;23195;47.744;7.358;2022-12-18T17:31:39;-1.40;99.90
37310;DHT22;23195;47.744;7.358;2022-12-18T17:34:12;-1.40;99.90
37310;DHT22;23195;47.744;7.358;2022-12-18T17:36:57;-1.50;99.90
37310;DHT22;23195;47.744;7.358;2022-12-18T17:39:23;-1.40;99.90
37310;DHT22;23195;47.744;7.358;2022-12-18T17:41:59;-1.30;99.90
37310;DHT22;23195;47.744;7.358;2022-12-18T17:44:27;-1.30;99.90
37310;DHT22;23195;47.744;7.358;2022-12-18T17:47:06;-1.40;99.90
37310;DHT22;23195;47.744;7.358;2022-12-18T17:49:42;-1.40;99.90
37310;DHT22;23195;47.744;7.358;2022-12-18T17:52:23;-1.40;99.90
37310;DHT22;23195;47.744;7.358;2022-12-18T17:54:54;-1.30;99.90
37310;DHT22;23195;47.744;7.358;2022-12-18T17:57:22;-1.40;99.90
37310;DHT22;23195;47.744;7.358;2022-12-18T17:59:50;-1.50;99.90
37310;DHT22;23195;47.744;7.358;2022-12-18T18:02:18;-1.50;99.90